createdAt,value
2017-07-03T00:01:32.105Z,13.90
2017-07-03T00:03:58.360Z,13.90
2017-07-03T00:06:25.264Z,13.90
2017-07-03T00:08:51.448Z,13.80
2017-07-03T00:11:17.640Z,13.90
2017-07-03T00:13:43.836Z,13.80
2017-07-03T00:16:10.008Z,13.70
2017-07-03T00:18:36.219Z,13.70
2017-07-03T00:21:02.391Z,13.80
2017-07-03T00:23:28.569Z,13.70
2017-07-03T00:25:54.766Z,13.70
2017-07-03T00:28:21.000Z,13.70
2017-07-03T00:30:47.182Z,13.70
2017-07-03T00:33:13.395Z,13.70
2017-07-03T00:35:39.574Z,13.80
2017-07-03T00:38:05.747Z,13.80
2017-07-03T00:40:32.676Z,13.80
2017-07-03T00:42:58.869Z,13.80
2017-07-03T00:45:25.047Z,13.80
2017-07-03T00:47:51.988Z,13.70
2017-07-03T00:50:18.158Z,13.70
2017-07-03T00:52:44.323Z,13.70
2017-07-03T00:55:10.536Z,13.70
2017-07-03T00:57:36.728Z,13.70
2017-07-03T01:00:02.911Z,13.70
2017-07-03T01:02:29.118Z,13.70
2017-07-03T01:04:55.284Z,13.70
2017-07-03T01:07:22.188Z,13.70
2017-07-03T01:09:48.370Z,13.70
2017-07-03T01:12:14.528Z,13.70
2017-07-03T01:14:40.731Z,13.70
2017-07-03T01:17:06.924Z,13.70
2017-07-03T01:19:33.096Z,13.70
2017-07-03T01:21:59.300Z,13.70
2017-07-03T01:24:26.226Z,13.70
2017-07-03T01:26:53.138Z,13.70
2017-07-03T01:29:19.348Z,13.70
2017-07-03T01:31:45.532Z,13.70
2017-07-03T01:34:12.444Z,13.70
2017-07-03T01:36:38.669Z,13.70
2017-07-03T01:39:04.846Z,13.70
2017-07-03T01:41:31.064Z,13.70
2017-07-03T01:43:58.039Z,13.60
2017-07-03T01:46:24.263Z,13.60
2017-07-03T01:48:50.453Z,13.70
2017-07-03T01:51:17.387Z,13.60
2017-07-03T01:53:43.619Z,13.60
2017-07-03T01:56:09.812Z,13.60
2017-07-03T01:58:35.988Z,13.60
2017-07-03T02:01:02.923Z,13.60
2017-07-03T02:03:29.845Z,13.60
2017-07-03T02:05:56.055Z,13.50
2017-07-03T02:08:22.214Z,13.60
2017-07-03T02:10:48.377Z,13.60
2017-07-03T02:13:14.560Z,13.60
2017-07-03T02:15:40.732Z,13.60
2017-07-03T02:18:06.936Z,13.70
2017-07-03T02:20:33.167Z,13.60
2017-07-03T02:22:59.348Z,13.70
2017-07-03T02:25:25.542Z,13.60
2017-07-03T02:27:51.784Z,13.60
2017-07-03T02:30:17.945Z,13.60
2017-07-03T02:32:44.107Z,13.70
2017-07-03T02:35:10.329Z,13.60
2017-07-03T02:37:37.240Z,13.60
2017-07-03T02:40:03.408Z,13.50
2017-07-03T02:42:29.620Z,13.60
2017-07-03T02:44:55.782Z,13.50
2017-07-03T02:47:21.956Z,13.60
2017-07-03T02:49:48.144Z,13.60
2017-07-03T02:52:14.314Z,13.60
2017-07-03T02:54:40.508Z,13.50
2017-07-03T02:57:06.681Z,13.50
2017-07-03T02:59:33.611Z,13.50
2017-07-03T03:01:59.812Z,13.40
2017-07-03T03:04:25.976Z,13.50
2017-07-03T03:06:52.918Z,13.30
2017-07-03T03:09:19.869Z,13.30
2017-07-03T03:11:46.036Z,13.20
2017-07-03T03:14:12.274Z,13.20
2017-07-03T03:16:38.446Z,13.20
2017-07-03T03:19:05.369Z,13.30
2017-07-03T03:21:31.559Z,13.30
2017-07-03T03:23:57.744Z,13.40
2017-07-03T03:26:24.659Z,13.30
2017-07-03T03:28:50.900Z,13.30
2017-07-03T03:31:17.069Z,13.30
2017-07-03T03:33:43.236Z,13.10
2017-07-03T03:36:09.839Z,13.00
2017-07-03T03:38:36.007Z,13.00
2017-07-03T03:41:02.172Z,13.00
2017-07-03T03:43:29.188Z,13.00
2017-07-03T03:45:55.380Z,13.00
2017-07-03T03:48:21.547Z,13.00
2017-07-03T03:50:47.749Z,13.00
2017-07-03T03:53:13.913Z,13.00
2017-07-03T03:55:40.835Z,13.10
2017-07-03T03:58:07.055Z,13.10
2017-07-03T04:00:33.238Z,13.10
2017-07-03T04:02:59.465Z,13.10
2017-07-03T04:05:25.664Z,13.10
2017-07-03T04:07:52.567Z,13.10
2017-07-03T04:10:18.734Z,13.10
2017-07-03T04:12:45.679Z,13.10
2017-07-03T04:15:12.624Z,13.10
2017-07-03T04:17:39.547Z,13.10
2017-07-03T04:20:05.757Z,13.10
2017-07-03T04:22:31.960Z,13.10
2017-07-03T04:24:58.163Z,13.10
2017-07-03T04:27:25.095Z,13.20
2017-07-03T04:29:52.028Z,13.30
2017-07-03T04:32:18.228Z,13.30
2017-07-03T04:34:44.388Z,13.30
2017-07-03T04:37:11.311Z,13.40
2017-07-03T04:39:37.530Z,13.40
2017-07-03T04:42:03.728Z,13.40
2017-07-03T04:44:29.926Z,13.40
2017-07-03T04:46:56.834Z,13.60
2017-07-03T04:49:23.077Z,13.60
2017-07-03T04:51:49.274Z,13.60
2017-07-03T04:54:15.475Z,13.60
2017-07-03T04:56:41.640Z,13.60
2017-07-03T04:59:07.848Z,13.60
2017-07-03T05:01:34.020Z,13.70
2017-07-03T05:04:00.932Z,13.70
2017-07-03T05:06:27.130Z,13.70
2017-07-03T05:08:53.303Z,13.80
2017-07-03T05:11:19.483Z,13.80
2017-07-03T05:13:45.671Z,13.80
2017-07-03T05:16:12.589Z,13.80
2017-07-03T05:18:38.798Z,13.80
2017-07-03T05:21:04.964Z,13.80
2017-07-03T05:23:31.145Z,13.90
2017-07-03T05:25:57.356Z,14.00
2017-07-03T05:28:23.561Z,14.00
2017-07-03T05:30:50.557Z,14.20
2017-07-03T05:33:16.760Z,14.20
2017-07-03T05:35:42.957Z,14.30
2017-07-03T05:38:09.181Z,14.40
2017-07-03T05:40:36.127Z,14.70
2017-07-03T05:43:09.152Z,14.60
2017-07-03T05:45:35.340Z,14.60
2017-07-03T05:48:02.249Z,14.90
2017-07-03T05:50:28.430Z,14.90
2017-07-03T05:52:54.627Z,14.90
2017-07-03T05:55:20.799Z,15.00
2017-07-03T05:57:46.976Z,15.10
2017-07-03T06:00:13.220Z,15.60
2017-07-03T06:02:40.166Z,16.50
2017-07-03T06:05:07.085Z,16.40
2017-07-03T06:07:33.296Z,16.40
2017-07-03T06:09:59.460Z,16.20
2017-07-03T06:12:26.363Z,16.50
2017-07-03T06:14:52.575Z,16.50
2017-07-03T06:17:18.796Z,17.10
2017-07-03T06:19:44.998Z,17.60
2017-07-03T06:22:11.196Z,18.00
2017-07-03T06:24:37.424Z,18.00
2017-07-03T06:27:03.635Z,17.80
2017-07-03T06:29:29.812Z,17.80
2017-07-03T06:31:56.716Z,17.70
2017-07-03T06:34:22.904Z,17.60
2017-07-03T06:36:49.084Z,17.70
2017-07-03T06:39:15.304Z,17.80
2017-07-03T06:41:41.471Z,18.20
2017-07-03T06:44:07.646Z,18.20
2017-07-03T06:46:34.681Z,18.70
2017-07-03T06:49:00.872Z,19.10
2017-07-03T06:51:27.048Z,19.20
2017-07-03T06:53:53.276Z,19.10
2017-07-03T06:56:19.441Z,18.80
2017-07-03T06:58:46.362Z,19.50
2017-07-03T07:01:12.612Z,19.50
2017-07-03T07:03:39.518Z,19.50
2017-07-03T07:06:05.701Z,19.40
2017-07-03T07:08:31.899Z,19.90
2017-07-03T07:10:58.059Z,20.40
2017-07-03T07:13:24.227Z,20.70
2017-07-03T07:15:50.495Z,20.70
2017-07-03T07:18:16.700Z,20.50
2017-07-03T07:20:43.039Z,20.10
2017-07-03T07:23:09.953Z,19.70
2017-07-03T07:25:36.165Z,19.70
2017-07-03T07:28:02.364Z,19.40
2017-07-03T07:30:28.547Z,19.10
2017-07-03T07:32:54.765Z,19.10
2017-07-03T07:35:20.936Z,19.10
2017-07-03T07:37:47.152Z,19.00
2017-07-03T07:40:13.408Z,19.10
2017-07-03T07:42:39.592Z,19.40
2017-07-03T07:45:05.817Z,19.50
2017-07-03T07:47:32.747Z,19.80
2017-07-03T07:49:58.924Z,19.80
2017-07-03T07:52:25.120Z,20.70
2017-07-03T07:54:52.067Z,22.70
2017-07-03T07:57:18.272Z,22.70
2017-07-03T07:59:44.431Z,23.20
2017-07-03T08:02:11.406Z,21.70
2017-07-03T08:04:37.610Z,21.70
2017-07-03T08:07:03.780Z,21.10
2017-07-03T08:09:29.997Z,20.60
2017-07-03T08:11:56.185Z,20.30
2017-07-03T08:14:23.112Z,20.70
2017-07-03T08:16:49.316Z,20.70
2017-07-03T08:19:15.493Z,22.20
2017-07-03T08:21:41.664Z,22.70
2017-07-03T08:24:07.861Z,23.60
2017-07-03T08:26:34.052Z,24.40
2017-07-03T08:29:00.271Z,25.10
2017-07-03T08:31:26.436Z,25.90
2017-07-03T08:33:52.637Z,26.30
2017-07-03T08:36:19.593Z,27.50
2017-07-03T08:38:46.525Z,27.90
2017-07-03T08:41:13.488Z,28.40
2017-07-03T08:43:39.719Z,28.40
2017-07-03T08:46:05.899Z,27.90
2017-07-03T08:48:32.090Z,27.10
2017-07-03T08:50:58.325Z,27.30
2017-07-03T08:53:24.500Z,27.80
2017-07-03T08:55:51.460Z,27.50
2017-07-03T08:58:18.379Z,28.00
2017-07-03T09:00:44.549Z,28.00
2017-07-03T09:03:10.755Z,26.90
2017-07-03T09:05:37.683Z,26.50
2017-07-03T09:08:03.859Z,26.40
2017-07-03T09:10:30.063Z,28.10
2017-07-03T09:12:56.994Z,30.20
2017-07-03T09:15:23.164Z,30.20
2017-07-03T09:17:49.389Z,29.50
2017-07-03T09:20:15.580Z,29.00
2017-07-03T09:22:42.500Z,28.70
2017-07-03T09:25:08.709Z,28.70
2017-07-03T09:27:34.911Z,27.70
2017-07-03T09:30:01.122Z,26.80
2017-07-03T09:32:27.344Z,26.10
2017-07-03T09:34:54.263Z,25.70
2017-07-03T09:37:20.494Z,25.70
2017-07-03T09:39:46.730Z,26.00
2017-07-03T09:42:12.887Z,26.50
2017-07-03T09:44:39.120Z,27.60
2017-07-03T09:47:05.301Z,28.90
2017-07-03T09:49:31.472Z,30.10
2017-07-03T09:51:57.660Z,30.20
2017-07-03T09:54:24.609Z,31.40
2017-07-03T09:56:51.560Z,30.50
2017-07-03T09:59:18.488Z,30.20
2017-07-03T10:01:45.423Z,30.40
2017-07-03T10:04:11.658Z,30.40
2017-07-03T10:06:37.905Z,29.70
2017-07-03T10:09:04.423Z,29.10
2017-07-03T10:11:30.601Z,28.30
2017-07-03T10:13:56.789Z,27.70
2017-07-03T10:16:23.809Z,26.70
2017-07-03T10:18:49.980Z,26.60
2017-07-03T10:21:16.187Z,27.10
2017-07-03T10:23:43.146Z,29.70
2017-07-03T10:26:09.312Z,29.70
2017-07-03T10:28:35.498Z,31.00
2017-07-03T10:31:01.742Z,30.70
2017-07-03T10:33:27.953Z,30.30
2017-07-03T10:35:54.140Z,29.80
2017-07-03T10:38:20.360Z,30.00
2017-07-03T10:40:46.546Z,30.20
2017-07-03T10:43:12.752Z,29.50
2017-07-03T10:45:39.721Z,28.50
2017-07-03T10:48:05.900Z,28.50
2017-07-03T10:50:32.077Z,27.80
2017-07-03T10:52:58.273Z,27.40
2017-07-03T10:55:24.442Z,27.00
2017-07-03T10:57:50.669Z,27.00
2017-07-03T11:00:16.840Z,26.90
2017-07-03T11:02:43.041Z,27.20
2017-07-03T11:05:09.249Z,27.10
2017-07-03T11:07:35.445Z,27.20
2017-07-03T11:10:02.374Z,26.50
2017-07-03T11:12:28.576Z,26.40
2017-07-03T11:14:54.752Z,26.40
2017-07-03T11:17:20.933Z,26.40
2017-07-03T11:19:47.129Z,26.80
2017-07-03T11:22:13.316Z,27.00
2017-07-03T11:24:39.545Z,27.00
2017-07-03T11:27:06.468Z,27.00
2017-07-03T11:29:32.667Z,27.00
2017-07-03T11:31:58.884Z,27.20
2017-07-03T11:34:25.075Z,27.50
2017-07-03T11:36:51.256Z,27.50
2017-07-03T11:39:17.477Z,27.10
2017-07-03T11:41:43.736Z,26.90
2017-07-03T11:44:09.915Z,26.60
2017-07-03T11:46:36.155Z,26.50
2017-07-03T11:49:02.339Z,26.70
2017-07-03T11:51:28.552Z,26.60
2017-07-03T11:53:54.754Z,26.50
2017-07-03T11:56:20.993Z,25.90
2017-07-03T11:58:47.221Z,25.90
2017-07-03T12:01:13.387Z,25.80
2017-07-03T12:03:39.626Z,25.80
2017-07-03T12:06:05.852Z,25.70
2017-07-03T12:08:32.060Z,25.50
2017-07-03T12:10:58.988Z,25.50
2017-07-03T12:13:25.176Z,25.50
2017-07-03T12:15:51.452Z,25.50
2017-07-03T12:18:18.396Z,25.80
2017-07-03T12:20:45.364Z,25.90
2017-07-03T12:23:11.556Z,25.90
2017-07-03T12:25:37.742Z,25.70
2017-07-03T12:28:03.956Z,25.40
2017-07-03T12:30:30.136Z,25.50
2017-07-03T12:32:56.307Z,25.50
2017-07-03T12:35:22.521Z,25.20
2017-07-03T12:37:48.700Z,24.90
2017-07-03T12:40:14.908Z,24.70
2017-07-03T12:42:41.082Z,24.50
2017-07-03T12:45:08.040Z,24.90
2017-07-03T12:47:34.289Z,24.80
2017-07-03T12:50:00.468Z,24.90
2017-07-03T12:52:26.660Z,24.80
2017-07-03T12:54:52.855Z,24.70
2017-07-03T12:57:19.080Z,24.80
2017-07-03T12:59:45.268Z,24.90
2017-07-03T13:02:11.448Z,24.90
2017-07-03T13:04:37.651Z,25.10
2017-07-03T13:07:04.615Z,24.40
2017-07-03T13:09:30.788Z,24.40
2017-07-03T13:11:56.953Z,24.20
2017-07-03T13:14:23.952Z,24.00
2017-07-03T13:16:50.133Z,24.00
2017-07-03T13:19:16.300Z,23.90
2017-07-03T13:21:42.568Z,24.10
2017-07-03T13:24:09.573Z,24.30
2017-07-03T13:26:35.838Z,24.30
2017-07-03T13:29:02.043Z,24.50
2017-07-03T13:31:28.214Z,24.50
2017-07-03T13:33:54.387Z,24.30
2017-07-03T13:36:20.609Z,24.30
2017-07-03T13:38:46.780Z,24.40
2017-07-03T13:41:13.710Z,24.40
2017-07-03T13:43:39.908Z,24.40
2017-07-03T13:46:06.142Z,24.20
2017-07-03T13:48:32.333Z,24.20
2017-07-03T13:50:58.500Z,24.20
2017-07-03T13:53:24.713Z,24.30
2017-07-03T13:55:50.899Z,24.20
2017-07-03T13:58:17.815Z,24.30
2017-07-03T14:00:44.016Z,24.20
2017-07-03T14:03:10.209Z,24.00
2017-07-03T14:05:36.411Z,23.90
2017-07-03T14:08:02.679Z,23.90
2017-07-03T14:10:28.845Z,23.80
2017-07-03T14:12:55.062Z,23.90
2017-07-03T14:15:21.285Z,24.00
2017-07-03T14:17:47.447Z,24.10
2017-07-03T14:20:14.418Z,23.90
2017-07-03T14:22:40.607Z,23.90
2017-07-03T14:25:06.792Z,23.70
2017-07-03T14:27:32.988Z,23.50
2017-07-03T14:29:59.168Z,23.50
2017-07-03T14:32:25.373Z,23.60
2017-07-03T14:34:51.543Z,23.60
2017-07-03T14:37:17.743Z,23.70
2017-07-03T14:39:43.905Z,23.60
2017-07-03T14:42:10.827Z,23.50
2017-07-03T14:44:37.052Z,23.50
2017-07-03T14:47:03.232Z,23.70
2017-07-03T14:49:29.434Z,23.70
2017-07-03T14:51:56.337Z,23.50
2017-07-03T14:54:22.581Z,23.50
2017-07-03T14:56:48.759Z,23.30
2017-07-03T14:59:14.948Z,23.40
2017-07-03T15:01:41.169Z,23.40
2017-07-03T15:04:07.343Z,23.40
2017-07-03T15:06:33.512Z,23.40
2017-07-03T15:08:59.720Z,23.30
2017-07-03T15:11:25.903Z,23.20
2017-07-03T15:13:52.848Z,23.30
2017-07-03T15:16:19.773Z,23.50
2017-07-03T15:18:46.685Z,23.50
2017-07-03T15:21:12.898Z,23.50
2017-07-03T15:23:39.075Z,23.50
2017-07-03T15:26:05.245Z,23.60
2017-07-03T15:28:31.492Z,23.50
2017-07-03T15:30:57.668Z,23.40
2017-07-03T15:33:24.609Z,23.40
2017-07-03T15:35:51.544Z,23.30
2017-07-03T15:38:18.601Z,23.10
2017-07-03T15:40:44.804Z,23.10
2017-07-03T15:43:11.017Z,23.10
2017-07-03T15:45:37.225Z,23.00
2017-07-03T15:48:03.404Z,23.10
2017-07-03T15:50:29.587Z,23.00
2017-07-03T15:52:55.796Z,23.00
2017-07-03T15:55:22.025Z,23.00
2017-07-03T15:57:48.192Z,23.00
2017-07-03T16:00:14.373Z,23.00
2017-07-03T16:02:40.577Z,22.90
2017-07-03T16:05:06.801Z,22.90
2017-07-03T16:07:33.716Z,22.70
2017-07-03T16:09:59.894Z,22.70
2017-07-03T16:12:26.124Z,22.70
2017-07-03T16:14:52.288Z,22.50
2017-07-03T16:17:18.548Z,22.40
2017-07-03T16:19:45.479Z,22.30
2017-07-03T16:22:11.731Z,22.30
2017-07-03T16:24:37.895Z,22.10
2017-07-03T16:27:04.084Z,22.10
2017-07-03T16:29:30.288Z,22.10
2017-07-03T16:31:56.493Z,22.10
2017-07-03T16:34:22.758Z,22.00
2017-07-03T16:36:48.927Z,21.80
2017-07-03T16:39:15.113Z,21.70
2017-07-03T16:41:42.101Z,21.90
2017-07-03T16:44:09.049Z,21.90
2017-07-03T16:46:35.296Z,21.90
2017-07-03T16:49:01.572Z,21.70
2017-07-03T16:51:27.746Z,21.80
2017-07-03T16:53:53.956Z,21.80
2017-07-03T16:56:20.139Z,21.90
2017-07-03T16:58:47.056Z,21.70
2017-07-03T17:01:13.329Z,21.70
2017-07-03T17:03:39.511Z,21.70
2017-07-03T17:06:05.724Z,21.60
2017-07-03T17:08:32.002Z,21.60
2017-07-03T17:10:58.191Z,21.60
2017-07-03T17:13:24.398Z,21.60
2017-07-03T17:15:50.628Z,21.60
2017-07-03T17:18:16.884Z,21.50
2017-07-03T17:20:43.065Z,21.40
2017-07-03T17:23:09.231Z,21.40
2017-07-03T17:25:35.441Z,21.40
2017-07-03T17:28:01.629Z,21.30
2017-07-03T17:30:27.822Z,21.20
2017-07-03T17:32:54.068Z,21.20
2017-07-03T17:35:20.244Z,21.10
2017-07-03T17:37:46.412Z,21.10
2017-07-03T17:40:12.648Z,21.20
2017-07-03T17:42:38.845Z,21.20
2017-07-03T17:45:05.046Z,21.20
2017-07-03T17:47:31.244Z,21.30
2017-07-03T17:49:57.417Z,21.30
2017-07-03T17:52:23.634Z,21.10
2017-07-03T17:54:49.823Z,21.10
2017-07-03T17:57:15.995Z,21.00
2017-07-03T17:59:42.215Z,20.80
2017-07-03T18:02:08.416Z,20.80
2017-07-03T18:04:34.669Z,20.80
2017-07-03T18:07:00.848Z,20.80
2017-07-03T18:09:27.760Z,20.80
2017-07-03T18:11:54.011Z,20.80
2017-07-03T18:14:20.942Z,20.60
2017-07-03T18:16:47.154Z,20.60
2017-07-03T18:19:13.369Z,20.70
2017-07-03T18:21:39.576Z,20.60
2017-07-03T18:24:05.768Z,20.60
2017-07-03T18:26:32.684Z,20.40
2017-07-03T18:28:58.911Z,20.40
2017-07-03T18:31:25.117Z,20.30
2017-07-03T18:33:51.288Z,20.30
2017-07-03T18:36:17.497Z,20.20
2017-07-03T18:38:43.675Z,20.20
2017-07-03T18:41:09.875Z,20.20
2017-07-03T18:43:36.817Z,20.00
2017-07-03T18:46:03.780Z,20.00
2017-07-03T18:48:29.985Z,19.90
2017-07-03T18:50:56.989Z,19.90
2017-07-03T18:53:23.168Z,19.90
2017-07-03T18:55:50.111Z,19.90
2017-07-03T18:58:16.355Z,19.80
2017-07-03T19:00:42.537Z,19.90
2017-07-03T19:03:08.729Z,19.90
2017-07-03T19:05:34.940Z,19.80
2017-07-03T19:08:01.138Z,19.80
2017-07-03T19:10:28.097Z,19.60
2017-07-03T19:12:55.074Z,19.50
2017-07-03T19:15:21.289Z,19.50
2017-07-03T19:17:47.497Z,19.50
2017-07-03T19:20:13.722Z,19.40
2017-07-03T19:22:40.641Z,19.40
2017-07-03T19:25:06.820Z,19.40
2017-07-03T19:27:33.051Z,19.30
2017-07-03T19:29:59.219Z,19.20
2017-07-03T19:32:25.497Z,19.20
2017-07-03T19:34:51.716Z,19.10
2017-07-03T19:37:17.899Z,19.00
2017-07-03T19:39:44.105Z,18.90
2017-07-03T19:42:10.320Z,18.80
2017-07-03T19:44:36.507Z,18.80
2017-07-03T19:47:03.481Z,18.80
2017-07-03T19:49:29.649Z,18.70
2017-07-03T19:51:55.818Z,18.70
2017-07-03T19:54:22.019Z,18.60
2017-07-03T19:56:48.192Z,18.50
2017-07-03T19:59:14.384Z,18.50
2017-07-03T20:01:40.612Z,18.40
2017-07-03T20:04:07.548Z,18.20
2017-07-03T20:06:34.480Z,18.20
2017-07-03T20:09:00.696Z,18.20
2017-07-03T20:11:26.896Z,18.10
2017-07-03T20:13:53.093Z,18.20
2017-07-03T20:16:19.331Z,18.20
2017-07-03T20:18:45.570Z,18.00
2017-07-03T20:21:11.752Z,18.00
2017-07-03T20:23:37.967Z,18.00
2017-07-03T20:26:04.217Z,18.00
2017-07-03T20:28:31.144Z,17.10
2017-07-03T20:30:57.368Z,17.10
2017-07-03T20:33:23.565Z,16.60
2017-07-03T20:35:49.789Z,16.30
2017-07-03T20:38:15.986Z,16.50
2017-07-03T20:40:42.213Z,16.30
2017-07-03T20:43:08.416Z,16.20
2017-07-03T20:45:34.587Z,16.10
2017-07-03T20:48:00.829Z,16.10
2017-07-03T20:50:27.017Z,15.90
2017-07-03T20:52:53.978Z,15.70
2017-07-03T20:55:20.180Z,15.70
2017-07-03T20:57:47.104Z,15.70
2017-07-03T21:00:13.312Z,15.70
2017-07-03T21:02:39.511Z,15.60
2017-07-03T21:05:05.692Z,15.70
2017-07-03T21:07:31.896Z,16.00
2017-07-03T21:09:58.119Z,16.00
2017-07-03T21:12:24.295Z,15.80
2017-07-03T21:14:50.463Z,15.80
2017-07-03T21:17:16.721Z,15.50
2017-07-03T21:19:42.906Z,15.30
2017-07-03T21:22:09.080Z,15.20
2017-07-03T21:24:35.276Z,15.20
2017-07-03T21:27:01.492Z,15.00
2017-07-03T21:29:27.724Z,15.10
2017-07-03T21:31:53.891Z,15.00
2017-07-03T21:34:20.060Z,14.90
2017-07-03T21:36:46.268Z,14.70
2017-07-03T21:39:12.444Z,14.80
2017-07-03T21:41:38.649Z,14.70
2017-07-03T21:44:04.831Z,14.70
2017-07-03T21:46:31.759Z,14.90
2017-07-03T21:48:57.973Z,14.90
2017-07-03T21:51:24.176Z,14.60
2017-07-03T21:53:50.354Z,14.40
2017-07-03T21:56:17.276Z,14.60
2017-07-03T21:58:43.489Z,14.50
2017-07-03T22:01:09.804Z,14.30
2017-07-03T22:03:36.008Z,14.10
2017-07-03T22:06:02.209Z,14.20
2017-07-03T22:08:28.744Z,14.10
2017-07-03T22:10:54.908Z,14.10
2017-07-03T22:13:21.071Z,14.20
2017-07-03T22:15:47.272Z,14.30
2017-07-03T22:18:13.469Z,14.50
2017-07-03T22:20:39.639Z,14.30
2017-07-03T22:23:05.848Z,14.40
2017-07-03T22:25:32.024Z,14.40
2017-07-03T22:27:58.189Z,14.10
2017-07-03T22:30:24.388Z,14.00
2017-07-03T22:32:51.326Z,13.80
2017-07-03T22:35:18.244Z,13.80
2017-07-03T22:37:44.456Z,13.80
2017-07-03T22:40:10.672Z,13.90
2017-07-03T22:42:36.901Z,13.80
2017-07-03T22:45:03.119Z,14.00
2017-07-03T22:47:29.293Z,13.80
2017-07-03T22:49:55.500Z,13.70
2017-07-03T22:52:21.676Z,13.60
2017-07-03T22:54:47.847Z,13.80
2017-07-03T22:57:14.060Z,13.80
2017-07-03T22:59:40.287Z,13.90
2017-07-03T23:02:06.468Z,14.00
2017-07-03T23:04:33.374Z,14.00
2017-07-03T23:06:59.570Z,14.00
2017-07-03T23:09:26.526Z,14.10
2017-07-03T23:11:52.696Z,14.30
2017-07-03T23:14:18.858Z,14.30
2017-07-03T23:16:45.064Z,14.10
2017-07-03T23:19:11.980Z,14.20
2017-07-03T23:21:38.181Z,14.20
2017-07-03T23:24:04.392Z,14.30
2017-07-03T23:26:30.560Z,14.40
2017-07-03T23:28:56.745Z,14.30
2017-07-03T23:31:23.008Z,14.20
2017-07-03T23:33:49.172Z,14.30
2017-07-03T23:36:16.100Z,14.20
2017-07-03T23:38:42.295Z,14.20
2017-07-03T23:41:08.475Z,14.20
2017-07-03T23:43:35.399Z,13.80
2017-07-03T23:46:01.629Z,13.80
2017-07-03T23:48:27.804Z,13.70
2017-07-03T23:50:53.975Z,14.00
2017-07-03T23:53:20.179Z,13.70
2017-07-03T23:55:46.343Z,13.80
2017-07-03T23:58:13.263Z,13.30
